Chuathbaluk, Alaska
Current Conditions -  °F | °C
As of 4:55 PM on Thursday 20 Nov 2014 (Local Time) from PASV Reporting Station
Broken Clouds Broken Clouds  
Wind Chill: 36°   Ceiling: 24000
Heat Index: 43°   Visibility: 10mi
Dew Point: 23°   Wind: 13mph
Humidity: 45%   Direction: 50°NE
Pressure: 28.97"   Gusts: NA
Location:  61.576°N, 156.056°W
Report Text: PASV 210155Z AUTO 05011KT 10SM BKN240 06/M05 A2897 RMK AO2 SLP819 T00611052
Loading
Personal Weather Stations






























Interactive Weather Map New forecast layout! Learn more

10-Day Weather Forecast

Advertisements
Track Severe Weather on mobile